This is the latest recevied weather packets stored in our database for station/object SR7U-1. If no packets are shown the sender has not sent any weather packets the latest 10 day(s).
| Time | Temp. | Humidity | Pressure | Rain* | Wind** | Luminosity | Snow |
|---|---|---|---|---|---|---|---|
| 1777983460 | 26.11° C | 21% | 1008.4 hPa | - | - | - | - |
| 1777982567 | 25.56° C | 22% | 1008.6 hPa | - | - | - | - |
| 1777981720 | 25° C | 22% | 1008.7 hPa | - | - | - | - |
| 1777980880 | 25.56° C | 24% | 1008.8 hPa | - | - | - | - |
| 1777980055 | 26.11° C | 24% | 1009 hPa | - | - | - | - |
| 1777979240 | 25° C | 24% | 1009.1 hPa | - | - | - | - |
| 1777978475 | 24.44° C | 25% | 1009.3 hPa | - | - | - | - |
| 1777977615 | 23.89° C | 26% | 1009.3 hPa | - | - | - | - |
| 1777976747 | 23.33° C | 26% | 1009.5 hPa | - | - | - | - |
| 1777975858 | 24.44° C | 24% | 1009.6 hPa | - | - | - | - |
| 1777975040 | 23.89° C | 27% | 1009.8 hPa | - | - | - | - |
| 1777974302 | 23.89° C | 27% | 1010 hPa | - | - | - | - |
| 1777973422 | 23.33° C | 30% | 1010 hPa | - | - | - | - |
| 1777972630 | 23.33° C | 29% | 1010.2 hPa | - | - | - | - |
| 1777971749 | 22.78° C | 32% | 1010.2 hPa | - | - | - | - |
| 1777970985 | 23.33° C | 30% | 1010.3 hPa | - | - | - | - |
| 1777970135 | 22.78° C | 33% | 1010.5 hPa | - | - | - | - |
| 1777969405 | 22.78° C | 31% | 1010.7 hPa | - | - | - | - |
| 1777968675 | 22.22° C | 34% | 1010.6 hPa | - | - | - | - |
| 1777967930 | 22.22° C | 33% | 1010.8 hPa | - | - | - | - |
| 1777967075 | 21.67° C | 34% | 1010.9 hPa | - | - | - | - |
| 1777966255 | 21.11° C | 36% | 1010.9 hPa | - | - | - | - |
| 1777965385 | 19.44° C | 39% | 1011 hPa | - | - | - | - |
| 1777964549 | 18.89° C | 44% | 1011.1 hPa | - | - | - | - |
| 1777963805 | 18.89° C | 43% | 1011.1 hPa | - | - | - | - |
* Rain since midnight (hover to see other rain measurements)
** Current wind speed in m/s (hover to see current wind gust speed)